sensor_id;sensor_type;location;lat;lon;timestamp;pressure;altitude;pressure_sealevel;temperature;humidity
7532;BME280;3807;49.030;8.714;2023-03-22T00:00:24;99179.66;;;13.50;62.78
7532;BME280;3807;49.030;8.714;2023-03-22T00:02:52;99177.31;;;13.45;62.73
7532;BME280;3807;49.030;8.714;2023-03-22T00:05:18;99170.53;;;13.44;62.34
7532;BME280;3807;49.030;8.714;2023-03-22T00:07:43;99170.00;;;13.38;62.92
7532;BME280;3807;49.030;8.714;2023-03-22T00:10:10;99163.09;;;13.40;62.39
7532;BME280;3807;49.030;8.714;2023-03-22T00:12:35;99166.09;;;13.30;62.51
7532;BME280;3807;49.030;8.714;2023-03-22T00:15:00;99158.62;;;13.26;62.82
7532;BME280;3807;49.030;8.714;2023-03-22T00:17:26;99159.47;;;13.26;62.56
7532;BME280;3807;49.030;8.714;2023-03-22T00:19:51;99163.03;;;13.22;62.91
7532;BME280;3807;49.030;8.714;2023-03-22T00:22:18;99151.34;;;13.17;62.82
7532;BME280;3807;49.030;8.714;2023-03-22T00:24:44;99149.94;;;13.11;62.85
7532;BME280;3807;49.030;8.714;2023-03-22T00:27:09;99149.75;;;13.14;62.96
7532;BME280;3807;49.030;8.714;2023-03-22T00:29:35;99146.47;;;13.12;62.65
7532;BME280;3807;49.030;8.714;2023-03-22T00:32:00;99151.72;;;13.09;62.78
7532;BME280;3807;49.030;8.714;2023-03-22T00:34:30;99151.94;;;13.04;62.75
7532;BME280;3807;49.030;8.714;2023-03-22T00:36:55;99142.53;;;13.05;62.79
7532;BME280;3807;49.030;8.714;2023-03-22T00:39:20;99135.16;;;12.99;62.99
7532;BME280;3807;49.030;8.714;2023-03-22T00:41:46;99137.84;;;12.96;62.89
7532;BME280;3807;49.030;8.714;2023-03-22T00:44:12;99132.94;;;12.91;62.90
7532;BME280;3807;49.030;8.714;2023-03-22T00:46:37;99129.06;;;12.82;63.14
7532;BME280;3807;49.030;8.714;2023-03-22T00:49:02;99131.28;;;12.90;63.28
7532;BME280;3807;49.030;8.714;2023-03-22T00:51:28;99127.16;;;12.87;63.06
7532;BME280;3807;49.030;8.714;2023-03-22T00:53:53;99127.97;;;12.88;63.08
7532;BME280;3807;49.030;8.714;2023-03-22T00:56:19;99120.53;;;12.83;63.08
7532;BME280;3807;49.030;8.714;2023-03-22T00:58:47;99126.72;;;12.78;63.22
7532;BME280;3807;49.030;8.714;2023-03-22T01:01:13;99123.34;;;12.77;63.09
7532;BME280;3807;49.030;8.714;2023-03-22T01:03:39;99118.09;;;12.80;63.11
7532;BME280;3807;49.030;8.714;2023-03-22T01:06:05;99112.31;;;12.77;63.25
7532;BME280;3807;49.030;8.714;2023-03-22T01:08:30;99113.41;;;12.71;63.27
7532;BME280;3807;49.030;8.714;2023-03-22T01:11:03;99104.38;;;12.64;63.18
7532;BME280;3807;49.030;8.714;2023-03-22T01:13:28;99108.56;;;12.65;63.33
7532;BME280;3807;49.030;8.714;2023-03-22T01:15:54;99097.78;;;12.58;63.66
7532;BME280;3807;49.030;8.714;2023-03-22T01:18:20;99094.28;;;12.61;63.47
7532;BME280;3807;49.030;8.714;2023-03-22T01:20:45;99086.84;;;12.56;63.65
7532;BME280;3807;49.030;8.714;2023-03-22T01:23:10;99086.87;;;12.55;63.38
7532;BME280;3807;49.030;8.714;2023-03-22T01:25:35;99088.00;;;12.49;63.45
7532;BME280;3807;49.030;8.714;2023-03-22T01:28:01;99086.37;;;12.48;63.76
7532;BME280;3807;49.030;8.714;2023-03-22T01:30:27;99085.72;;;12.43;63.72
7532;BME280;3807;49.030;8.714;2023-03-22T01:32:53;99084.91;;;12.43;63.76
7532;BME280;3807;49.030;8.714;2023-03-22T01:35:22;99077.44;;;12.38;63.67
7532;BME280;3807;49.030;8.714;2023-03-22T01:37:47;99076.41;;;12.42;63.64
7532;BME280;3807;49.030;8.714;2023-03-22T01:40:13;99079.09;;;12.39;63.67
7532;BME280;3807;49.030;8.714;2023-03-22T01:42:39;99088.16;;;12.27;63.89
7532;BME280;3807;49.030;8.714;2023-03-22T01:47:47;99071.22;;;12.25;64.07
7532;BME280;3807;49.030;8.714;2023-03-22T01:50:15;99072.19;;;12.22;63.98
7532;BME280;3807;49.030;8.714;2023-03-22T01:52:42;99073.22;;;12.18;64.03
7532;BME280;3807;49.030;8.714;2023-03-22T01:55:08;99071.34;;;12.22;64.10
7532;BME280;3807;49.030;8.714;2023-03-22T01:57:34;99066.53;;;12.15;64.07
7532;BME280;3807;49.030;8.714;2023-03-22T02:00:08;99064.78;;;12.16;63.99
7532;BME280;3807;49.030;8.714;2023-03-22T02:02:42;99070.94;;;12.12;64.06
7532;BME280;3807;49.030;8.714;2023-03-22T02:05:09;99061.63;;;12.11;64.21
7532;BME280;3807;49.030;8.714;2023-03-22T02:07:36;99072.56;;;12.13;64.11
7532;BME280;3807;49.030;8.714;2023-03-22T02:10:02;99063.41;;;12.09;63.85
7532;BME280;3807;49.030;8.714;2023-03-22T02:15:23;99061.81;;;12.06;63.89
7532;BME280;3807;49.030;8.714;2023-03-22T02:29:06;99061.66;;;11.90;64.38
7532;BME280;3807;49.030;8.714;2023-03-22T02:34:30;99059.34;;;11.84;64.48
7532;BME280;3807;49.030;8.714;2023-03-22T02:37:38;99056.16;;;11.79;64.29
7532;BME280;3807;49.030;8.714;2023-03-22T02:48:27;99054.75;;;11.72;64.53
7532;BME280;3807;49.030;8.714;2023-03-22T02:50:59;99059.22;;;11.67;64.65
7532;BME280;3807;49.030;8.714;2023-03-22T02:53:45;99059.28;;;11.65;64.51
7532;BME280;3807;49.030;8.714;2023-03-22T02:56:17;99055.06;;;11.64;64.81
7532;BME280;3807;49.030;8.714;2023-03-22T02:58:47;99058.34;;;11.68;64.57
7532;BME280;3807;49.030;8.714;2023-03-22T03:01:38;99053.53;;;11.60;64.66
7532;BME280;3807;49.030;8.714;2023-03-22T03:04:09;99048.44;;;11.60;64.42
7532;BME280;3807;49.030;8.714;2023-03-22T03:06:37;99056.41;;;11.53;64.84
7532;BME280;3807;49.030;8.714;2023-03-22T03:09:05;99055.25;;;11.60;64.64
7532;BME280;3807;49.030;8.714;2023-03-22T03:11:31;99062.78;;;11.63;64.62
7532;BME280;3807;49.030;8.714;2023-03-22T03:13:57;99054.44;;;11.59;64.49
7532;BME280;3807;49.030;8.714;2023-03-22T03:16:25;99052.72;;;11.60;64.65
7532;BME280;3807;49.030;8.714;2023-03-22T03:19:16;99051.81;;;11.61;64.35
7532;BME280;3807;49.030;8.714;2023-03-22T03:22:00;99042.91;;;11.51;64.65
7532;BME280;3807;49.030;8.714;2023-03-22T03:24:46;99038.81;;;11.47;64.67
7532;BME280;3807;49.030;8.714;2023-03-22T03:32:14;99040.53;;;11.46;65.02
7532;BME280;3807;49.030;8.714;2023-03-22T03:34:58;99034.13;;;11.58;64.57
7532;BME280;3807;49.030;8.714;2023-03-22T03:37:33;99037.66;;;11.54;64.64
7532;BME280;3807;49.030;8.714;2023-03-22T03:40:07;99034.63;;;11.45;64.63
7532;BME280;3807;49.030;8.714;2023-03-22T03:42:36;99031.28;;;11.43;64.81
7532;BME280;3807;49.030;8.714;2023-03-22T03:45:02;99031.94;;;11.49;64.86
7532;BME280;3807;49.030;8.714;2023-03-22T03:47:29;99021.16;;;11.42;64.99
7532;BME280;3807;49.030;8.714;2023-03-22T03:49:56;99034.63;;;11.45;64.66
7532;BME280;3807;49.030;8.714;2023-03-22T03:52:22;99032.50;;;11.55;64.37
7532;BME280;3807;49.030;8.714;2023-03-22T03:54:49;99034.84;;;11.39;64.74
7532;BME280;3807;49.030;8.714;2023-03-22T03:57:14;99026.59;;;11.34;65.23
7532;BME280;3807;49.030;8.714;2023-03-22T03:59:40;99031.69;;;11.34;65.04
7532;BME280;3807;49.030;8.714;2023-03-22T04:02:06;99033.34;;;11.35;65.15
7532;BME280;3807;49.030;8.714;2023-03-22T04:04:31;99022.19;;;11.38;64.84
7532;BME280;3807;49.030;8.714;2023-03-22T04:06:59;99022.56;;;11.49;64.57
7532;BME280;3807;49.030;8.714;2023-03-22T04:09:27;99022.31;;;11.55;64.08
7532;BME280;3807;49.030;8.714;2023-03-22T04:11:54;99025.44;;;11.41;64.64
7532;BME280;3807;49.030;8.714;2023-03-22T04:14:20;99017.84;;;11.40;64.82
7532;BME280;3807;49.030;8.714;2023-03-22T04:16:46;99017.22;;;11.35;64.90
7532;BME280;3807;49.030;8.714;2023-03-22T04:19:11;99015.81;;;11.28;65.09
7532;BME280;3807;49.030;8.714;2023-03-22T04:21:37;99016.88;;;11.22;65.03
7532;BME280;3807;49.030;8.714;2023-03-22T04:24:02;99017.78;;;11.21;65.29
7532;BME280;3807;49.030;8.714;2023-03-22T04:26:28;99012.44;;;11.27;65.09
7532;BME280;3807;49.030;8.714;2023-03-22T04:28:53;99029.38;;;11.28;65.08
7532;BME280;3807;49.030;8.714;2023-03-22T04:31:18;99032.72;;;11.30;64.95
7532;BME280;3807;49.030;8.714;2023-03-22T04:33:44;99023.78;;;11.20;65.09
7532;BME280;3807;49.030;8.714;2023-03-22T04:36:11;99020.25;;;11.23;65.06
7532;BME280;3807;49.030;8.714;2023-03-22T04:38:40;99011.84;;;11.20;65.10
7532;BME280;3807;49.030;8.714;2023-03-22T04:41:06;99011.06;;;11.18;65.11
7532;BME280;3807;49.030;8.714;2023-03-22T04:43:31;99007.00;;;11.14;65.27
7532;BME280;3807;49.030;8.714;2023-03-22T04:46:00;99004.66;;;11.10;65.31
7532;BME280;3807;49.030;8.714;2023-03-22T04:48:26;99007.12;;;11.11;65.17
7532;BME280;3807;49.030;8.714;2023-03-22T04:50:52;99000.63;;;11.04;65.25
7532;BME280;3807;49.030;8.714;2023-03-22T04:53:17;99003.03;;;11.07;65.25
7532;BME280;3807;49.030;8.714;2023-03-22T04:55:42;99000.81;;;11.00;65.65
7532;BME280;3807;49.030;8.714;2023-03-22T04:58:09;98994.59;;;11.07;65.58
7532;BME280;3807;49.030;8.714;2023-03-22T05:00:35;98993.22;;;10.98;65.43
7532;BME280;3807;49.030;8.714;2023-03-22T05:03:02;98990.66;;;10.98;65.14
7532;BME280;3807;49.030;8.714;2023-03-22T05:05:28;98992.16;;;11.04;64.97
7532;BME280;3807;49.030;8.714;2023-03-22T05:07:54;98996.34;;;11.05;64.99
7532;BME280;3807;49.030;8.714;2023-03-22T05:10:20;98994.78;;;11.02;65.03
7532;BME280;3807;49.030;8.714;2023-03-22T05:12:46;98994.19;;;10.95;65.13
7532;BME280;3807;49.030;8.714;2023-03-22T05:15:12;98990.62;;;11.00;65.39
7532;BME280;3807;49.030;8.714;2023-03-22T05:17:37;98995.84;;;10.96;65.05
7532;BME280;3807;49.030;8.714;2023-03-22T05:20:03;98999.41;;;10.92;65.55
7532;BME280;3807;49.030;8.714;2023-03-22T05:22:33;99005.25;;;10.94;65.00
7532;BME280;3807;49.030;8.714;2023-03-22T05:25:03;99007.28;;;10.86;65.12
7532;BME280;3807;49.030;8.714;2023-03-22T05:27:29;99004.75;;;10.86;65.28
7532;BME280;3807;49.030;8.714;2023-03-22T05:29:55;99008.88;;;10.89;65.28
7532;BME280;3807;49.030;8.714;2023-03-22T05:32:20;99005.25;;;10.94;65.19
7532;BME280;3807;49.030;8.714;2023-03-22T05:34:49;99006.69;;;10.80;65.53
7532;BME280;3807;49.030;8.714;2023-03-22T05:37:15;99013.19;;;10.87;65.33
7532;BME280;3807;49.030;8.714;2023-03-22T05:39:41;99002.00;;;10.91;64.85
7532;BME280;3807;49.030;8.714;2023-03-22T05:42:06;99011.75;;;10.81;64.99
7532;BME280;3807;49.030;8.714;2023-03-22T05:44:31;99015.28;;;10.77;65.34
7532;BME280;3807;49.030;8.714;2023-03-22T05:46:57;99013.16;;;10.66;65.52
7532;BME280;3807;49.030;8.714;2023-03-22T05:49:22;99017.37;;;10.67;65.79
7532;BME280;3807;49.030;8.714;2023-03-22T05:51:48;99019.09;;;10.67;65.51
7532;BME280;3807;49.030;8.714;2023-03-22T05:54:14;99021.88;;;10.61;65.63
7532;BME280;3807;49.030;8.714;2023-03-22T05:56:40;99024.81;;;10.72;65.47
7532;BME280;3807;49.030;8.714;2023-03-22T05:59:05;99021.47;;;10.71;65.53
7532;BME280;3807;49.030;8.714;2023-03-22T06:01:31;99023.81;;;10.76;65.04
7532;BME280;3807;49.030;8.714;2023-03-22T06:03:57;99015.53;;;10.71;65.27
7532;BME280;3807;49.030;8.714;2023-03-22T06:06:23;99021.56;;;10.68;65.61
7532;BME280;3807;49.030;8.714;2023-03-22T06:08:48;99013.94;;;10.68;65.63
7532;BME280;3807;49.030;8.714;2023-03-22T06:11:13;99017.13;;;10.73;65.17
7532;BME280;3807;49.030;8.714;2023-03-22T06:13:38;99013.00;;;10.71;65.45
7532;BME280;3807;49.030;8.714;2023-03-22T06:16:04;99018.00;;;10.72;65.58
7532;BME280;3807;49.030;8.714;2023-03-22T06:18:30;99016.59;;;10.65;65.72
7532;BME280;3807;49.030;8.714;2023-03-22T06:20:56;99010.97;;;10.79;65.17
7532;BME280;3807;49.030;8.714;2023-03-22T06:23:22;99015.13;;;10.82;64.96
7532;BME280;3807;49.030;8.714;2023-03-22T06:25:47;99020.13;;;10.83;65.04
7532;BME280;3807;49.030;8.714;2023-03-22T06:28:12;99022.81;;;10.80;64.93
7532;BME280;3807;49.030;8.714;2023-03-22T06:30:38;99023.44;;;10.63;65.37
7532;BME280;3807;49.030;8.714;2023-03-22T06:33:03;99026.91;;;10.62;65.48
7532;BME280;3807;49.030;8.714;2023-03-22T06:35:31;99024.31;;;10.64;65.44
7532;BME280;3807;49.030;8.714;2023-03-22T06:37:57;99026.13;;;10.82;64.58
7532;BME280;3807;49.030;8.714;2023-03-22T06:40:23;99030.09;;;10.89;64.58
7532;BME280;3807;49.030;8.714;2023-03-22T06:42:48;99029.50;;;10.83;64.64
7532;BME280;3807;49.030;8.714;2023-03-22T06:45:14;99027.84;;;10.82;64.49
7532;BME280;3807;49.030;8.714;2023-03-22T06:47:41;99021.97;;;10.80;64.82
7532;BME280;3807;49.030;8.714;2023-03-22T06:50:07;99027.72;;;11.07;63.73
7532;BME280;3807;49.030;8.714;2023-03-22T06:52:32;99020.69;;;10.91;64.21
7532;BME280;3807;49.030;8.714;2023-03-22T06:54:57;99022.56;;;10.86;64.43
7532;BME280;3807;49.030;8.714;2023-03-22T06:57:23;99021.88;;;10.61;65.02
7532;BME280;3807;49.030;8.714;2023-03-22T06:59:48;99023.94;;;10.95;64.24
7532;BME280;3807;49.030;8.714;2023-03-22T07:02:13;99029.50;;;10.83;64.49
7532;BME280;3807;49.030;8.714;2023-03-22T07:04:39;99022.66;;;10.85;64.61
7532;BME280;3807;49.030;8.714;2023-03-22T07:07:04;99024.41;;;10.83;64.63
7532;BME280;3807;49.030;8.714;2023-03-22T07:09:29;99022.62;;;10.63;65.07
7532;BME280;3807;49.030;8.714;2023-03-22T07:11:55;99023.78;;;10.78;65.06
7532;BME280;3807;49.030;8.714;2023-03-22T07:14:20;99024.91;;;10.70;65.08
7532;BME280;3807;49.030;8.714;2023-03-22T07:16:45;99029.16;;;10.92;64.37
7532;BME280;3807;49.030;8.714;2023-03-22T07:19:11;99033.00;;;10.80;64.64
7532;BME280;3807;49.030;8.714;2023-03-22T07:21:36;99031.28;;;11.03;63.94
7532;BME280;3807;49.030;8.714;2023-03-22T07:24:01;99032.44;;;10.94;64.36
7532;BME280;3807;49.030;8.714;2023-03-22T07:26:27;99031.97;;;11.06;64.28
7532;BME280;3807;49.030;8.714;2023-03-22T07:28:54;99031.94;;;10.86;64.62
7532;BME280;3807;49.030;8.714;2023-03-22T07:31:20;99034.34;;;11.11;63.69
7532;BME280;3807;49.030;8.714;2023-03-22T07:33:45;99032.72;;;11.08;63.93
7532;BME280;3807;49.030;8.714;2023-03-22T07:36:12;99039.03;;;11.00;63.96
7532;BME280;3807;49.030;8.714;2023-03-22T07:38:38;99036.88;;;11.11;63.73
7532;BME280;3807;49.030;8.714;2023-03-22T07:41:03;99036.00;;;10.90;64.31
7532;BME280;3807;49.030;8.714;2023-03-22T07:43:29;99034.09;;;11.17;63.80
7532;BME280;3807;49.030;8.714;2023-03-22T07:45:54;99027.94;;;11.01;63.99
7532;BME280;3807;49.030;8.714;2023-03-22T07:48:21;99040.91;;;11.16;63.81
7532;BME280;3807;49.030;8.714;2023-03-22T07:50:47;99039.22;;;11.15;63.81
7532;BME280;3807;49.030;8.714;2023-03-22T07:53:12;99042.41;;;11.00;64.41
7532;BME280;3807;49.030;8.714;2023-03-22T07:55:38;99029.06;;;10.93;64.53
7532;BME280;3807;49.030;8.714;2023-03-22T07:58:05;99034.88;;;10.97;64.62
7532;BME280;3807;49.030;8.714;2023-03-22T08:00:31;99038.16;;;11.21;63.81
7532;BME280;3807;49.030;8.714;2023-03-22T08:02:56;99045.53;;;11.07;64.41
7532;BME280;3807;49.030;8.714;2023-03-22T08:05:22;99045.84;;;10.77;65.39
7532;BME280;3807;49.030;8.714;2023-03-22T08:07:48;99040.19;;;10.70;65.80
7532;BME280;3807;49.030;8.714;2023-03-22T08:10:14;99053.72;;;10.93;65.19
7532;BME280;3807;49.030;8.714;2023-03-22T08:12:40;99053.19;;;11.07;64.68
7532;BME280;3807;49.030;8.714;2023-03-22T08:15:06;99046.00;;;11.16;64.44
7532;BME280;3807;49.030;8.714;2023-03-22T08:17:31;99048.87;;;11.09;64.74
7532;BME280;3807;49.030;8.714;2023-03-22T08:19:56;99046.06;;;11.15;64.39
7532;BME280;3807;49.030;8.714;2023-03-22T08:22:22;99049.84;;;11.05;64.89
7532;BME280;3807;49.030;8.714;2023-03-22T08:24:54;99038.84;;;11.04;64.74
7532;BME280;3807;49.030;8.714;2023-03-22T08:27:20;99038.91;;;11.03;65.05
7532;BME280;3807;49.030;8.714;2023-03-22T08:29:45;99046.00;;;10.94;65.61
7532;BME280;3807;49.030;8.714;2023-03-22T08:32:14;99039.28;;;10.93;65.37
7532;BME280;3807;49.030;8.714;2023-03-22T08:34:40;99044.66;;;10.86;65.46
7532;BME280;3807;49.030;8.714;2023-03-22T08:37:07;99042.53;;;10.97;65.16
7532;BME280;3807;49.030;8.714;2023-03-22T08:39:32;99043.84;;;10.85;65.80
7532;BME280;3807;49.030;8.714;2023-03-22T08:41:58;99032.44;;;10.94;65.66
7532;BME280;3807;49.030;8.714;2023-03-22T08:44:24;99032.91;;;11.04;65.59
7532;BME280;3807;49.030;8.714;2023-03-22T08:46:51;99031.75;;;10.90;66.33
7532;BME280;3807;49.030;8.714;2023-03-22T08:49:16;99029.19;;;10.90;65.91
7532;BME280;3807;49.030;8.714;2023-03-22T08:51:41;99028.22;;;11.15;65.52
7532;BME280;3807;49.030;8.714;2023-03-22T08:54:07;99026.59;;;10.92;65.94
7532;BME280;3807;49.030;8.714;2023-03-22T08:56:32;99018.13;;;10.91;65.50
7532;BME280;3807;49.030;8.714;2023-03-22T08:59:07;99024.66;;;10.99;66.03
7532;BME280;3807;49.030;8.714;2023-03-22T09:01:34;99027.50;;;11.11;65.34
7532;BME280;3807;49.030;8.714;2023-03-22T09:04:00;99018.97;;;11.33;64.58
7532;BME280;3807;49.030;8.714;2023-03-22T09:06:26;99013.72;;;11.58;65.96
7532;BME280;3807;49.030;8.714;2023-03-22T09:08:52;99008.28;;;11.65;65.69
7532;BME280;3807;49.030;8.714;2023-03-22T09:11:18;99001.22;;;11.52;66.86
7532;BME280;3807;49.030;8.714;2023-03-22T09:13:43;98997.72;;;11.54;66.85
7532;BME280;3807;49.030;8.714;2023-03-22T09:16:09;98996.00;;;11.55;66.82
7532;BME280;3807;49.030;8.714;2023-03-22T09:18:39;99000.34;;;11.92;65.99
7532;BME280;3807;49.030;8.714;2023-03-22T09:21:06;98999.94;;;12.01;65.14
7532;BME280;3807;49.030;8.714;2023-03-22T09:23:32;99001.19;;;12.11;65.59
7532;BME280;3807;49.030;8.714;2023-03-22T09:25:59;99002.47;;;12.20;65.37
7532;BME280;3807;49.030;8.714;2023-03-22T09:28:26;98993.13;;;12.21;65.14
7532;BME280;3807;49.030;8.714;2023-03-22T09:30:51;98990.34;;;12.06;65.90
7532;BME280;3807;49.030;8.714;2023-03-22T09:33:16;98997.97;;;12.44;65.10
7532;BME280;3807;49.030;8.714;2023-03-22T09:35:42;98995.37;;;12.08;65.96
7532;BME280;3807;49.030;8.714;2023-03-22T09:38:08;98996.16;;;12.29;65.39
7532;BME280;3807;49.030;8.714;2023-03-22T09:40:36;98991.09;;;12.46;64.55
7532;BME280;3807;49.030;8.714;2023-03-22T09:43:06;98981.97;;;12.40;64.83
7532;BME280;3807;49.030;8.714;2023-03-22T09:45:41;98980.31;;;12.39;65.23
7532;BME280;3807;49.030;8.714;2023-03-22T09:48:15;98992.19;;;12.59;64.35
7532;BME280;3807;49.030;8.714;2023-03-22T09:50:50;98978.78;;;12.54;64.58
7532;BME280;3807;49.030;8.714;2023-03-22T09:53:16;98980.31;;;12.76;64.09
7532;BME280;3807;49.030;8.714;2023-03-22T09:56:05;98976.81;;;12.96;63.86
7532;BME280;3807;49.030;8.714;2023-03-22T10:01:25;98970.72;;;13.16;63.23
7532;BME280;3807;49.030;8.714;2023-03-22T10:06:48;98963.56;;;13.22;63.38
7532;BME280;3807;49.030;8.714;2023-03-22T10:12:00;98970.53;;;13.87;61.51
7532;BME280;3807;49.030;8.714;2023-03-22T10:16:58;98961.88;;;13.89;60.91
7532;BME280;3807;49.030;8.714;2023-03-22T10:19:40;98961.72;;;13.92;60.58
7532;BME280;3807;49.030;8.714;2023-03-22T10:22:09;98964.13;;;13.95;61.19
7532;BME280;3807;49.030;8.714;2023-03-22T10:24:42;98957.03;;;14.16;60.00
7532;BME280;3807;49.030;8.714;2023-03-22T10:27:18;98961.06;;;14.20;59.69
7532;BME280;3807;49.030;8.714;2023-03-22T10:29:56;98960.25;;;14.20;59.26
7532;BME280;3807;49.030;8.714;2023-03-22T10:32:35;98952.97;;;14.28;60.05
7532;BME280;3807;49.030;8.714;2023-03-22T10:35:04;98951.56;;;14.54;59.42
7532;BME280;3807;49.030;8.714;2023-03-22T10:37:33;98953.31;;;15.14;57.22
7532;BME280;3807;49.030;8.714;2023-03-22T10:40:04;98948.31;;;14.96;59.62
7532;BME280;3807;49.030;8.714;2023-03-22T10:42:30;98941.47;;;15.11;57.80
7532;BME280;3807;49.030;8.714;2023-03-22T10:45:05;98942.59;;;15.21;58.08
7532;BME280;3807;49.030;8.714;2023-03-22T10:47:38;98940.56;;;15.41;57.58
7532;BME280;3807;49.030;8.714;2023-03-22T10:50:14;98940.06;;;14.91;58.61
7532;BME280;3807;49.030;8.714;2023-03-22T10:52:48;98927.19;;;15.21;58.52
7532;BME280;3807;49.030;8.714;2023-03-22T10:55:16;98933.03;;;15.23;58.50
7532;BME280;3807;49.030;8.714;2023-03-22T10:57:50;98942.97;;;16.01;54.75
7532;BME280;3807;49.030;8.714;2023-03-22T11:00:19;98932.78;;;16.00;54.26
7532;BME280;3807;49.030;8.714;2023-03-22T11:02:53;98924.84;;;15.90;55.73
7532;BME280;3807;49.030;8.714;2023-03-22T11:05:24;98919.84;;;16.01;54.51
7532;BME280;3807;49.030;8.714;2023-03-22T11:07:51;98930.59;;;15.93;55.72
7532;BME280;3807;49.030;8.714;2023-03-22T11:10:28;98920.03;;;15.98;54.35
7532;BME280;3807;49.030;8.714;2023-03-22T11:13:11;98909.59;;;15.87;55.05
7532;BME280;3807;49.030;8.714;2023-03-22T11:15:48;98917.09;;;16.04;54.67
7532;BME280;3807;49.030;8.714;2023-03-22T11:18:15;98913.00;;;15.87;56.51
7532;BME280;3807;49.030;8.714;2023-03-22T11:20:51;98919.37;;;16.36;53.44
7532;BME280;3807;49.030;8.714;2023-03-22T11:23:19;98902.81;;;15.86;55.71
7532;BME280;3807;49.030;8.714;2023-03-22T11:25:47;98908.94;;;15.98;56.10
7532;BME280;3807;49.030;8.714;2023-03-22T11:28:19;98915.38;;;15.90;56.36
7532;BME280;3807;49.030;8.714;2023-03-22T11:31:20;98903.03;;;16.10;55.74
7532;BME280;3807;49.030;8.714;2023-03-22T11:33:56;98901.44;;;16.61;53.06
7532;BME280;3807;49.030;8.714;2023-03-22T11:36:22;98904.97;;;16.73;54.12
7532;BME280;3807;49.030;8.714;2023-03-22T11:38:56;98911.78;;;16.74;52.24
7532;BME280;3807;49.030;8.714;2023-03-22T11:41:24;98907.91;;;16.81;51.76
7532;BME280;3807;49.030;8.714;2023-03-22T11:43:53;98907.47;;;16.75;54.30
7532;BME280;3807;49.030;8.714;2023-03-22T11:46:20;98902.66;;;16.96;51.92
7532;BME280;3807;49.030;8.714;2023-03-22T11:48:48;98904.53;;;16.66;53.63
7532;BME280;3807;49.030;8.714;2023-03-22T11:51:17;98898.38;;;16.69;52.58
7532;BME280;3807;49.030;8.714;2023-03-22T11:54:01;98891.56;;;16.95;52.74
7532;BME280;3807;49.030;8.714;2023-03-22T11:56:29;98894.53;;;16.89;52.84
7532;BME280;3807;49.030;8.714;2023-03-22T11:59:07;98889.59;;;16.99;52.28
7532;BME280;3807;49.030;8.714;2023-03-22T12:02:08;98886.41;;;17.21;52.79
7532;BME280;3807;49.030;8.714;2023-03-22T12:04:33;98878.56;;;17.48;52.33
7532;BME280;3807;49.030;8.714;2023-03-22T12:07:03;98877.00;;;17.58;51.29
7532;BME280;3807;49.030;8.714;2023-03-22T12:09:48;98879.13;;;17.77;51.02
7532;BME280;3807;49.030;8.714;2023-03-22T12:12:20;98869.34;;;17.82;51.21
7532;BME280;3807;49.030;8.714;2023-03-22T12:14:53;98871.66;;;17.85;50.97
7532;BME280;3807;49.030;8.714;2023-03-22T12:22:42;98873.06;;;18.02;50.04
7532;BME280;3807;49.030;8.714;2023-03-22T12:25:15;98860.72;;;18.18;49.17
7532;BME280;3807;49.030;8.714;2023-03-22T12:27:47;98848.09;;;18.26;47.97
7532;BME280;3807;49.030;8.714;2023-03-22T12:31:08;98864.75;;;18.33;49.15
7532;BME280;3807;49.030;8.714;2023-03-22T12:33:35;98856.31;;;18.67;46.59
7532;BME280;3807;49.030;8.714;2023-03-22T12:36:04;98856.53;;;18.52;48.37
7532;BME280;3807;49.030;8.714;2023-03-22T12:41:17;98851.97;;;18.67;49.18
7532;BME280;3807;49.030;8.714;2023-03-22T12:43:54;98844.91;;;18.58;47.27
7532;BME280;3807;49.030;8.714;2023-03-22T12:46:23;98840.13;;;18.65;48.55
7532;BME280;3807;49.030;8.714;2023-03-22T12:49:04;98841.94;;;18.75;48.54
7532;BME280;3807;49.030;8.714;2023-03-22T12:51:34;98834.91;;;18.89;50.22
7532;BME280;3807;49.030;8.714;2023-03-22T12:54:00;98835.53;;;19.26;47.35
7532;BME280;3807;49.030;8.714;2023-03-22T12:56:39;98827.06;;;19.13;47.51
7532;BME280;3807;49.030;8.714;2023-03-22T12:59:21;98820.06;;;19.15;46.03
7532;BME280;3807;49.030;8.714;2023-03-22T13:01:55;98828.47;;;19.50;44.60
7532;BME280;3807;49.030;8.714;2023-03-22T13:15:33;98807.28;;;19.79;45.10
7532;BME280;3807;49.030;8.714;2023-03-22T13:18:00;98815.22;;;19.98;47.91
7532;BME280;3807;49.030;8.714;2023-03-22T13:20:28;98808.66;;;19.94;45.96
7532;BME280;3807;49.030;8.714;2023-03-22T13:23:01;98805.41;;;20.34;44.33
7532;BME280;3807;49.030;8.714;2023-03-22T13:25:30;98802.00;;;20.34;44.69
7532;BME280;3807;49.030;8.714;2023-03-22T13:28:02;98795.81;;;20.25;44.71
7532;BME280;3807;49.030;8.714;2023-03-22T13:43:27;98776.72;;;20.16;44.80
7532;BME280;3807;49.030;8.714;2023-03-22T13:54:16;98768.56;;;20.21;45.55
7532;BME280;3807;49.030;8.714;2023-03-22T13:59:11;98762.66;;;20.51;44.24
7532;BME280;3807;49.030;8.714;2023-03-22T14:01:42;98753.06;;;20.63;44.49
7532;BME280;3807;49.030;8.714;2023-03-22T14:04:15;98753.16;;;20.82;45.28
7532;BME280;3807;49.030;8.714;2023-03-22T14:07:03;98747.75;;;20.43;45.08
7532;BME280;3807;49.030;8.714;2023-03-22T14:09:41;98750.84;;;20.37;43.69
7532;BME280;3807;49.030;8.714;2023-03-22T14:12:30;98758.03;;;20.34;45.07
7532;BME280;3807;49.030;8.714;2023-03-22T14:14:59;98737.84;;;20.49;43.46
7532;BME280;3807;49.030;8.714;2023-03-22T14:17:33;98753.53;;;19.94;44.06
7532;BME280;3807;49.030;8.714;2023-03-22T14:20:04;98743.84;;;20.07;44.37
7532;BME280;3807;49.030;8.714;2023-03-22T14:22:37;98740.03;;;20.22;45.69
7532;BME280;3807;49.030;8.714;2023-03-22T14:25:06;98737.94;;;19.95;44.45
7532;BME280;3807;49.030;8.714;2023-03-22T14:27:33;98740.25;;;19.78;44.62
7532;BME280;3807;49.030;8.714;2023-03-22T14:29:59;98735.03;;;20.52;43.52
7532;BME280;3807;49.030;8.714;2023-03-22T14:32:26;98742.03;;;20.19;45.06
7532;BME280;3807;49.030;8.714;2023-03-22T14:35:18;98729.72;;;20.32;44.15
7532;BME280;3807;49.030;8.714;2023-03-22T14:37:46;98733.16;;;20.42;45.43
7532;BME280;3807;49.030;8.714;2023-03-22T14:40:14;98731.00;;;20.17;43.36
7532;BME280;3807;49.030;8.714;2023-03-22T14:42:41;98724.75;;;20.40;41.93
7532;BME280;3807;49.030;8.714;2023-03-22T14:45:15;98727.56;;;20.37;42.83
7532;BME280;3807;49.030;8.714;2023-03-22T14:47:43;98728.00;;;20.21;45.02
7532;BME280;3807;49.030;8.714;2023-03-22T14:50:13;98718.25;;;20.25;45.76
7532;BME280;3807;49.030;8.714;2023-03-22T14:52:42;98720.66;;;20.17;45.69
7532;BME280;3807;49.030;8.714;2023-03-22T14:55:15;98718.94;;;20.06;43.70
7532;BME280;3807;49.030;8.714;2023-03-22T14:57:47;98720.66;;;19.96;43.83